Time;durP1;ratioP1;P1;durP2;ratioP2;P2;SDS_P1;SDS_P2;PMS_P1;PMS_P2;Temp;Humidity;BMP_temperature;BMP_pressure;BME280_temperature;BME280_humidity;BME280_pressure;Samples;Min_cycle;Max_cycle;Signal;HPM_P1;HPM_P2
2022/08/04 00:00:33;;;;;;;10.38;1.70;;;;;;;;;;5282671;28;20031;-70
2022/08/04 00:03:22;;;;;;;11.52;1.80;;;;;;;;;;5282583;28;20372;-70
2022/08/04 00:06:10;;;;;;;7.90;1.95;;;;;;;;;;5282205;28;20449;-69
2022/08/04 00:08:55;;;;;;;6.85;1.73;;;;;;;;;;5282509;28;20040;-69
2022/08/04 00:11:28;;;;;;;7.00;1.50;;;;;;;;;;5282067;28;20027;-70
2022/08/04 00:14:04;;;;;;;6.55;1.77;;;;;;;;;;5281015;28;20030;-69
2022/08/04 00:16:36;;;;;;;6.50;1.23;;;;;;;;;;5282452;28;20020;-69
2022/08/04 00:19:11;;;;;;;11.13;1.90;;;;;;;;;;5281338;28;20029;-70
2022/08/04 00:21:46;;;;;;;5.68;1.45;;;;;;;;;;5281994;28;20079;-69
2022/08/04 00:24:19;;;;;;;10.20;1.52;;;;;;;;;;5282148;28;20422;-69
2022/08/04 00:26:54;;;;;;;5.57;1.85;;;;;;;;;;5281693;28;20025;-69
2022/08/04 00:29:26;;;;;;;9.00;1.58;;;;;;;;;;5281769;28;20025;-70
2022/08/04 00:31:57;;;;;;;7.45;1.50;;;;;;;;;;5282319;28;20058;-69
2022/08/04 00:34:30;;;;;;;5.57;1.27;;;;;;;;;;5280910;28;20020;-70
2022/08/04 00:37:01;;;;;;;8.52;1.60;;;;;;;;;;5281844;28;20052;-70
2022/08/04 00:39:33;;;;;;;7.28;1.13;;;;;;;;;;5281854;28;20079;-70
2022/08/04 00:42:04;;;;;;;11.95;1.10;;;;;;;;;;5281138;28;20434;-69
2022/08/04 00:44:36;;;;;;;8.88;1.38;;;;;;;;;;5281868;28;20024;-69
2022/08/04 00:47:16;;;;;;;5.70;1.35;;;;;;;;;;5281064;28;20027;-69
2022/08/04 00:50:02;;;;;;;6.85;1.30;;;;;;;;;;5281867;28;20032;-69
2022/08/04 00:52:39;;;;;;;7.93;1.30;;;;;;;;;;5281907;28;20471;-70
2022/08/04 00:55:22;;;;;;;8.85;1.58;;;;;;;;;;5280908;28;20024;-70
2022/08/04 00:58:12;;;;;;;7.30;1.20;;;;;;;;;;5282209;28;20120;-69
2022/08/04 01:00:47;;;;;;;7.90;1.60;;;;;;;;;;5281586;28;20016;-70
2022/08/04 01:03:35;;;;;;;6.60;1.23;;;;;;;;;;5281275;28;20060;-70
2022/08/04 01:06:25;;;;;;;8.05;1.48;;;;;;;;;;5281542;28;20016;-70
2022/08/04 01:09:17;;;;;;;11.10;1.45;;;;;;;;;;5281045;28;20025;-70
2022/08/04 01:12:13;;;;;;;7.85;1.50;;;;;;;;;;5281087;28;20036;-71
2022/08/04 01:15:04;;;;;;;12.30;1.35;;;;;;;;;;5281651;28;20032;-70
2022/08/04 01:17:42;;;;;;;5.05;1.10;;;;;;;;;;5281387;28;20032;-71
2022/08/04 01:20:19;;;;;;;7.03;1.10;;;;;;;;;;5281192;28;20079;-68
2022/08/04 01:23:20;;;;;;;7.13;0.90;;;;;;;;;;5281201;28;20037;-69
2022/08/04 01:26:00;;;;;;;7.53;0.80;;;;;;;;;;5281860;28;20029;-70
2022/08/04 01:28:33;;;;;;;8.88;1.13;;;;;;;;;;5285552;28;20214;-70
2022/08/04 01:31:10;;;;;;;9.77;1.40;;;;;;;;;;5284821;28;20467;-70
2022/08/04 01:33:42;;;;;;;9.38;1.13;;;;;;;;;;5285710;28;20071;-70
2022/08/04 01:36:14;;;;;;;5.80;0.93;;;;;;;;;;5284858;28;20016;-70
2022/08/04 01:38:45;;;;;;;6.23;1.10;;;;;;;;;;5285486;28;20032;-70
2022/08/04 01:41:18;;;;;;;9.55;1.60;;;;;;;;;;5285361;28;20271;-71
2022/08/04 01:43:53;;;;;;;6.68;1.30;;;;;;;;;;5284416;28;20103;-71
2022/08/04 01:46:24;;;;;;;7.63;0.98;;;;;;;;;;5285132;28;20028;-71
2022/08/04 01:48:56;;;;;;;8.00;0.90;;;;;;;;;;5285398;28;20045;-70
2022/08/04 01:51:29;;;;;;;5.95;1.20;;;;;;;;;;5284158;28;20021;-70
2022/08/04 01:54:00;;;;;;;8.88;1.17;;;;;;;;;;5285340;28;20024;-71
2022/08/04 01:56:31;;;;;;;9.63;1.10;;;;;;;;;;5285199;28;20005;-70
2022/08/04 01:59:03;;;;;;;5.60;1.07;;;;;;;;;;5284383;28;20071;-70
2022/08/04 02:01:37;;;;;;;5.53;1.60;;;;;;;;;;5284994;28;20265;-70
2022/08/04 02:04:12;;;;;;;4.75;1.23;;;;;;;;;;5284065;28;20099;-70
2022/08/04 02:06:43;;;;;;;7.75;0.82;;;;;;;;;;5285036;28;20055;-69
2022/08/04 02:09:19;;;;;;;10.77;1.25;;;;;;;;;;5284840;28;20053;-70
2022/08/04 02:12:14;;;;;;;6.85;0.98;;;;;;;;;;5284157;28;20039;-70
2022/08/04 02:14:54;;;;;;;7.22;0.85;;;;;;;;;;5284254;28;20021;-70
2022/08/04 02:17:31;;;;;;;6.10;0.70;;;;;;;;;;5284455;28;20086;-70
2022/08/04 02:20:18;;;;;;;8.60;0.70;;;;;;;;;;5283853;28;20008;-70
2022/08/04 02:22:52;;;;;;;4.72;0.80;;;;;;;;;;5283559;28;20102;-70
2022/08/04 02:25:25;;;;;;;7.70;1.05;;;;;;;;;;5282353;28;20030;-70
2022/08/04 02:28:11;;;;;;;13.20;1.23;;;;;;;;;;5283605;28;20024;-70
2022/08/04 02:30:48;;;;;;;6.40;0.75;;;;;;;;;;5283290;28;20078;-71
2022/08/04 02:33:23;;;;;;;7.68;0.70;;;;;;;;;;5282050;28;20374;-70
2022/08/04 02:35:57;;;;;;;6.18;0.75;;;;;;;;;;5283300;28;20025;-70
2022/08/04 02:38:41;;;;;;;6.40;0.80;;;;;;;;;;5282475;28;20071;-70
2022/08/04 02:41:14;;;;;;;6.43;0.77;;;;;;;;;;5282433;28;20031;-70
2022/08/04 02:43:47;;;;;;;5.75;0.90;;;;;;;;;;5282967;28;20493;-70
2022/08/04 02:46:19;;;;;;;9.43;0.80;;;;;;;;;;5282128;28;20016;-70
2022/08/04 02:48:52;;;;;;;6.55;0.60;;;;;;;;;;5283249;28;20024;-70
2022/08/04 02:51:26;;;;;;;7.57;1.17;;;;;;;;;;5282631;28;20096;-70
2022/08/04 02:53:58;;;;;;;8.68;1.08;;;;;;;;;;5282479;28;20388;-70
2022/08/04 02:56:31;;;;;;;8.82;0.80;;;;;;;;;;5282301;28;20116;-70
2022/08/04 02:59:06;;;;;;;5.88;0.70;;;;;;;;;;5282940;28;20016;-70
2022/08/04 03:01:38;;;;;;;8.63;0.68;;;;;;;;;;5281776;28;20047;-70
2022/08/04 03:04:09;;;;;;;7.93;1.08;;;;;;;;;;5282524;28;20484;-70
2022/08/04 03:06:40;;;;;;;6.32;0.82;;;;;;;;;;5282456;28;20024;-70
2022/08/04 03:09:19;;;;;;;7.55;1.05;;;;;;;;;;5281896;28;20490;-70
2022/08/04 03:12:09;;;;;;;8.98;0.90;;;;;;;;;;5282880;28;20074;-69
2022/08/04 03:14:40;;;;;;;10.07;1.33;;;;;;;;;;5281649;28;20021;-69
2022/08/04 03:17:11;;;;;;;9.80;1.00;;;;;;;;;;5282320;28;20024;-69
2022/08/04 03:19:48;;;;;;;5.90;0.60;;;;;;;;;;5282566;28;20356;-71
2022/08/04 03:22:34;;;;;;;7.72;0.80;;;;;;;;;;5246122;28;1028760;-70
2022/08/04 03:25:08;;;;;;;6.30;1.17;;;;;;;;;;5283355;28;20550;-70
2022/08/04 03:27:58;;;;;;;5.63;1.08;;;;;;;;;;5283243;28;20019;-70
2022/08/04 03:30:35;;;;;;;6.38;0.90;;;;;;;;;;5282359;28;20028;-70
2022/08/04 03:33:24;;;;;;;5.88;1.17;;;;;;;;;;5283299;28;20020;-70
2022/08/04 03:36:07;;;;;;;8.65;1.60;;;;;;;;;;5282527;28;20031;-69
2022/08/04 03:39:00;;;;;;;9.85;0.90;;;;;;;;;;5282940;28;20028;-69
2022/08/04 03:41:37;;;;;;;10.40;1.17;;;;;;;;;;5282964;28;20029;-70
2022/08/04 03:44:28;;;;;;;11.75;1.95;;;;;;;;;;5282083;28;20471;-69
2022/08/04 03:47:20;;;;;;;9.07;1.30;;;;;;;;;;5283218;28;20008;-70
2022/08/04 03:50:11;;;;;;;5.45;0.80;;;;;;;;;;5280832;28;20045;-69
2022/08/04 03:53:10;;;;;;;6.07;1.00;;;;;;;;;;5282597;28;20035;-70
2022/08/04 03:56:00;;;;;;;6.97;1.60;;;;;;;;;;5282706;28;20460;-69
2022/08/04 03:58:51;;;;;;;6.72;1.60;;;;;;;;;;5281767;28;20032;-70
2022/08/04 04:01:22;;;;;;;10.80;1.55;;;;;;;;;;5282287;28;20020;-70
2022/08/04 04:04:19;;;;;;;9.80;1.80;;;;;;;;;;5281931;28;20012;-70
2022/08/04 04:07:09;;;;;;;8.55;2.10;;;;;;;;;;5282629;28;20028;-70
2022/08/04 04:09:49;;;;;;;8.48;2.28;;;;;;;;;;5282256;28;20502;-70
2022/08/04 04:12:20;;;;;;;10.73;1.77;;;;;;;;;;5281445;28;20020;-70
2022/08/04 04:15:10;;;;;;;11.18;2.13;;;;;;;;;;5282625;28;20024;-69
2022/08/04 04:18:00;;;;;;;7.72;2.08;;;;;;;;;;5282191;28;20059;-71
2022/08/04 04:20:34;;;;;;;6.75;2.22;;;;;;;;;;5282233;28;20040;-70
2022/08/04 04:23:08;;;;;;;8.00;2.45;;;;;;;;;;5282345;28;20027;-71
2022/08/04 04:25:48;;;;;;;11.23;2.67;;;;;;;;;;5281317;28;20032;-71
2022/08/04 04:28:37;;;;;;;11.68;2.70;;;;;;;;;;5281898;28;20120;-71
2022/08/04 04:31:27;;;;;;;10.32;2.35;;;;;;;;;;5282127;28;20016;-71
2022/08/04 04:34:01;;;;;;;7.90;2.38;;;;;;;;;;5281520;28;20024;-71
2022/08/04 04:36:51;;;;;;;8.52;2.28;;;;;;;;;;5281819;28;20081;-71
2022/08/04 04:39:22;;;;;;;8.90;2.25;;;;;;;;;;5280735;28;20410;-70
2022/08/04 04:42:12;;;;;;;6.93;2.42;;;;;;;;;;5282161;28;20035;-71
2022/08/04 04:45:03;;;;;;;7.72;2.13;;;;;;;;;;5281704;28;20372;-71
2022/08/04 04:47:43;;;;;;;8.73;2.00;;;;;;;;;;5259589;28;20478;-70
2022/08/04 04:50:33;;;;;;;13.20;2.13;;;;;;;;;;5281627;28;20062;-70
2022/08/04 04:53:08;;;;;;;10.38;2.03;;;;;;;;;;5280900;28;20376;-71
2022/08/04 04:55:44;;;;;;;7.45;2.60;;;;;;;;;;5281516;28;20019;-71
2022/08/04 04:58:16;;;;;;;8.45;2.30;;;;;;;;;;5281565;28;20054;-71
2022/08/04 05:01:14;;;;;;;6.38;1.70;;;;;;;;;;5280771;28;20050;-70
2022/08/04 05:03:45;;;;;;;10.32;1.80;;;;;;;;;;5281574;28;20063;-71
2022/08/04 05:06:29;;;;;;;11.32;1.92;;;;;;;;;;5281686;28;20059;-71
2022/08/04 05:09:18;;;;;;;10.25;1.73;;;;;;;;;;5280756;28;20033;-71
2022/08/04 05:12:03;;;;;;;4.78;1.77;;;;;;;;;;5281705;28;20508;-70
2022/08/04 05:14:38;;;;;;;10.10;2.85;;;;;;;;;;5280676;28;20040;-70
2022/08/04 05:17:16;;;;;;;6.45;1.70;;;;;;;;;;5281442;28;20024;-71
2022/08/04 05:19:53;;;;;;;9.60;1.98;;;;;;;;;;5281527;28;20017;-69
2022/08/04 05:22:28;;;;;;;12.73;2.55;;;;;;;;;;5280094;28;20044;-70
2022/08/04 05:25:05;;;;;;;6.70;1.73;;;;;;;;;;5281402;28;20030;-70
2022/08/04 05:27:38;;;;;;;7.97;2.38;;;;;;;;;;5281395;28;20055;-69
2022/08/04 05:30:10;;;;;;;10.15;1.92;;;;;;;;;;5280249;28;20028;-70
2022/08/04 05:32:49;;;;;;;9.40;2.00;;;;;;;;;;5281007;28;20021;-70
2022/08/04 05:35:32;;;;;;;7.43;2.20;;;;;;;;;;5280387;28;20487;-70
2022/08/04 05:38:04;;;;;;;8.50;1.95;;;;;;;;;;5281245;28;20029;-72
2022/08/04 05:40:37;;;;;;;8.65;2.10;;;;;;;;;;5281169;28;20024;-70
2022/08/04 05:43:08;;;;;;;15.02;2.33;;;;;;;;;;5280419;28;20452;-71
2022/08/04 05:45:40;;;;;;;8.77;2.70;;;;;;;;;;5281332;28;20024;-70
2022/08/04 05:48:11;;;;;;;14.90;2.35;;;;;;;;;;5281110;28;20100;-71
2022/08/04 05:50:44;;;;;;;11.25;2.30;;;;;;;;;;5280265;28;20021;-70
2022/08/04 05:53:16;;;;;;;12.48;2.10;;;;;;;;;;5280899;28;20019;-71
2022/08/04 05:55:49;;;;;;;9.00;1.90;;;;;;;;;;5281161;28;20103;-70
2022/08/04 05:58:20;;;;;;;11.27;2.42;;;;;;;;;;5280157;28;20027;-71
2022/08/04 06:00:53;;;;;;;12.98;2.25;;;;;;;;;;5281355;28;20017;-70
2022/08/04 06:03:24;;;;;;;20.08;4.22;;;;;;;;;;5279817;28;20024;-70
2022/08/04 06:05:56;;;;;;;20.77;4.35;;;;;;;;;;5281248;28;20023;-70
2022/08/04 06:08:28;;;;;;;22.48;4.93;;;;;;;;;;5280394;28;20037;-70
2022/08/04 06:11:02;;;;;;;21.25;4.90;;;;;;;;;;5280500;28;20535;-71
2022/08/04 06:13:40;;;;;;;15.52;4.70;;;;;;;;;;5283780;28;20099;-70
2022/08/04 06:16:13;;;;;;;13.50;5.13;;;;;;;;;;5284732;28;20024;-71
2022/08/04 06:18:47;;;;;;;16.58;5.03;;;;;;;;;;5284131;28;20397;-70
2022/08/04 06:21:21;;;;;;;15.15;5.55;;;;;;;;;;5284165;28;20492;-71
2022/08/04 06:23:53;;;;;;;15.43;4.68;;;;;;;;;;5284651;28;20020;-70
2022/08/04 06:26:26;;;;;;;15.18;6.05;;;;;;;;;;5283518;28;20016;-71
2022/08/04 06:28:58;;;;;;;21.73;5.57;;;;;;;;;;5284557;28;20039;-70
2022/08/04 06:31:41;;;;;;;14.75;6.40;;;;;;;;;;5283290;28;20024;-71
2022/08/04 06:34:14;;;;;;;10.55;4.72;;;;;;;;;;5284480;28;20455;-71
2022/08/04 06:36:46;;;;;;;15.85;6.38;;;;;;;;;;5284275;28;20131;-71
2022/08/04 06:39:17;;;;;;;11.35;5.25;;;;;;;;;;5283067;28;20020;-71
2022/08/04 06:41:49;;;;;;;15.43;5.55;;;;;;;;;;5284320;28;20023;-70
2022/08/04 06:44:21;;;;;;;10.85;5.47;;;;;;;;;;5283906;28;20024;-71
2022/08/04 06:46:53;;;;;;;16.60;5.47;;;;;;;;;;5283324;28;20043;-70
2022/08/04 06:49:24;;;;;;;15.80;5.55;;;;;;;;;;5283563;28;20395;-71
2022/08/04 06:51:56;;;;;;;12.43;5.45;;;;;;;;;;5284194;28;20463;-71
2022/08/04 06:54:27;;;;;;;10.10;5.15;;;;;;;;;;5282771;28;20027;-71
2022/08/04 06:57:00;;;;;;;10.35;5.30;;;;;;;;;;5283939;28;20359;-71
2022/08/04 06:59:31;;;;;;;11.95;4.70;;;;;;;;;;5282931;28;20032;-71
2022/08/04 07:02:02;;;;;;;15.70;5.70;;;;;;;;;;5283472;28;20472;-71
2022/08/04 07:04:33;;;;;;;17.17;5.78;;;;;;;;;;5283812;28;20027;-71
2022/08/04 07:07:05;;;;;;;18.97;5.80;;;;;;;;;;5282627;28;20017;-70
2022/08/04 07:09:36;;;;;;;14.63;5.17;;;;;;;;;;5283477;28;20580;-69
2022/08/04 07:12:08;;;;;;;14.43;5.22;;;;;;;;;;5283655;28;20259;-70
2022/08/04 07:14:39;;;;;;;13.88;4.82;;;;;;;;;;5282691;28;20021;-70
2022/08/04 07:17:12;;;;;;;8.45;4.97;;;;;;;;;;5283640;28;20356;-70
2022/08/04 07:19:44;;;;;;;11.52;4.40;;;;;;;;;;5283340;28;20099;-70
2022/08/04 07:22:15;;;;;;;13.60;5.17;;;;;;;;;;5280160;28;20040;-70
2022/08/04 07:24:46;;;;;;;16.20;5.93;;;;;;;;;;5281857;28;20426;-69
2022/08/04 07:27:17;;;;;;;14.87;5.60;;;;;;;;;;5282717;28;20081;-70
2022/08/04 07:29:49;;;;;;;16.13;4.83;;;;;;;;;;5282396;28;20646;-69
2022/08/04 07:32:21;;;;;;;12.70;5.43;;;;;;;;;;5282941;28;20361;-70
2022/08/04 07:34:52;;;;;;;13.25;5.20;;;;;;;;;;5282890;28;20025;-70
2022/08/04 07:37:23;;;;;;;7.72;5.53;;;;;;;;;;5282402;28;20021;-71
2022/08/04 07:39:55;;;;;;;8.43;5.43;;;;;;;;;;5283094;28;20016;-70
2022/08/04 07:42:26;;;;;;;12.05;5.10;;;;;;;;;;5282138;28;20267;-70
2022/08/04 07:44:58;;;;;;;10.38;5.13;;;;;;;;;;5281755;28;20107;-70
2022/08/04 07:47:29;;;;;;;13.35;5.40;;;;;;;;;;5282128;28;20016;-70
2022/08/04 07:50:00;;;;;;;8.80;4.72;;;;;;;;;;5282028;28;20101;-70
2022/08/04 07:52:31;;;;;;;9.07;4.18;;;;;;;;;;5282797;28;20081;-70
2022/08/04 07:55:03;;;;;;;10.57;4.22;;;;;;;;;;5282831;28;20029;-71
2022/08/04 07:57:35;;;;;;;10.95;4.43;;;;;;;;;;5281518;28;20020;-69
2022/08/04 08:00:07;;;;;;;15.43;4.80;;;;;;;;;;5282643;28;20091;-70
2022/08/04 08:02:38;;;;;;;13.27;5.20;;;;;;;;;;5282406;28;20383;-70
2022/08/04 08:05:11;;;;;;;15.45;5.75;;;;;;;;;;5281891;28;20479;-70
2022/08/04 08:07:46;;;;;;;12.50;4.93;;;;;;;;;;5282533;28;20028;-70
2022/08/04 08:10:18;;;;;;;9.85;5.13;;;;;;;;;;5281792;28;20364;-70
2022/08/04 08:12:49;;;;;;;14.70;5.43;;;;;;;;;;5282474;28;20067;-70
2022/08/04 08:15:21;;;;;;;16.05;4.90;;;;;;;;;;5281988;28;20024;-70
2022/08/04 08:17:52;;;;;;;8.95;3.50;;;;;;;;;;5281909;28;20086;-71
2022/08/04 08:20:23;;;;;;;8.93;3.30;;;;;;;;;;5281852;28;20027;-71
2022/08/04 08:22:54;;;;;;;6.93;3.00;;;;;;;;;;5282442;28;20037;-70
2022/08/04 08:25:26;;;;;;;7.50;3.03;;;;;;;;;;5280546;28;20021;-70
2022/08/04 08:27:58;;;;;;;10.00;1.88;;;;;;;;;;5282433;28;20036;-70
2022/08/04 08:30:30;;;;;;;6.78;1.60;;;;;;;;;;5281709;28;20093;-70
2022/08/04 08:33:03;;;;;;;9.02;1.52;;;;;;;;;;5280930;28;20036;-70
2022/08/04 08:35:40;;;;;;;10.50;2.03;;;;;;;;;;5283769;28;20023;-71
2022/08/04 08:38:13;;;;;;;7.00;1.40;;;;;;;;;;5281563;28;20050;-73
2022/08/04 08:40:47;;;;;;;21.90;1.85;;;;;;;;;;5281962;28;20111;-70
2022/08/04 08:43:25;;;;;;;32.88;2.22;;;;;;;;;;5281717;28;20100;-72
2022/08/04 08:46:19;;;;;;;9.82;1.10;;;;;;;;;;5281430;28;20108;-71
2022/08/04 08:49:09;;;;;;;4.47;1.00;;;;;;;;;;5282128;28;20082;-71
2022/08/04 08:51:46;;;;;;;7.97;0.80;;;;;;;;;;5281823;28;20024;-71
2022/08/04 08:54:52;;;;;;;7.57;0.80;;;;;;;;;;5281191;28;20042;-71
2022/08/04 08:57:26;;;;;;;5.50;0.60;;;;;;;;;;5237681;28;20140;-71
2022/08/04 09:00:00;;;;;;;5.55;0.80;;;;;;;;;;5274663;28;20028;-71
2022/08/04 09:02:39;;;;;;;4.95;0.80;;;;;;;;;;5281764;28;20113;-71
2022/08/04 09:05:29;;;;;;;6.40;0.50;;;;;;;;;;5281567;28;20031;-71
2022/08/04 09:08:06;;;;;;;5.60;0.70;;;;;;;;;;5280955;28;20020;-70
2022/08/04 09:10:45;;;;;;;7.60;0.77;;;;;;;;;;5281501;28;20035;-70
2022/08/04 09:13:20;;;;;;;7.72;0.70;;;;;;;;;;5280672;28;20025;-70
2022/08/04 09:15:56;;;;;;;7.72;1.10;;;;;;;;;;5281753;28;20083;-71
2022/08/04 09:18:33;;;;;;;9.55;0.70;;;;;;;;;;5281426;28;20051;-71
2022/08/04 09:21:21;;;;;;;8.77;0.82;;;;;;;;;;5280689;28;20440;-70
2022/08/04 09:24:05;;;;;;;6.65;0.60;;;;;;;;;;5281704;28;20025;-70
2022/08/04 09:26:36;;;;;;;6.88;0.70;;;;;;;;;;5281574;28;20024;-70
2022/08/04 09:29:10;;;;;;;7.40;0.60;;;;;;;;;;5280550;28;20025;-70
2022/08/04 09:31:50;;;;;;;6.18;0.45;;;;;;;;;;5281459;28;20017;-70
2022/08/04 09:34:42;;;;;;;12.32;0.60;;;;;;;;;;5280318;28;20078;-70
2022/08/04 09:37:37;;;;;;;5.18;0.50;;;;;;;;;;5281402;28;20055;-70
2022/08/04 09:40:14;;;;;;;10.27;0.63;;;;;;;;;;5281324;28;20482;-70
2022/08/04 09:42:51;;;;;;;6.90;0.57;;;;;;;;;;5280354;28;20020;-70
2022/08/04 09:45:34;;;;;;;7.55;0.70;;;;;;;;;;5280854;28;20390;-70
2022/08/04 09:48:06;;;;;;;5.75;0.65;;;;;;;;;;5283881;28;20025;-70
2022/08/04 09:50:39;;;;;;;5.60;0.50;;;;;;;;;;5284634;28;20397;-71
2022/08/04 09:53:28;;;;;;;9.25;0.85;;;;;;;;;;5285133;28;20025;-73
2022/08/04 09:56:13;;;;;;;8.68;0.80;;;;;;;;;;5284582;28;20031;-72
2022/08/04 09:58:47;;;;;;;8.13;0.75;;;;;;;;;;5285251;28;20111;-74
2022/08/04 10:01:20;;;;;;;11.13;0.80;;;;;;;;;;5284749;28;20822;-73
2022/08/04 10:03:53;;;;;;;9.80;0.90;;;;;;;;;;5284455;28;20033;-71
2022/08/04 10:06:28;;;;;;;4.28;0.60;;;;;;;;;;5284520;28;20025;-72
2022/08/04 10:09:11;;;;;;;11.43;0.90;;;;;;;;;;5284978;28;20120;-72
2022/08/04 10:12:01;;;;;;;20.67;1.20;;;;;;;;;;5283997;28;20100;-72
2022/08/04 10:14:52;;;;;;;13.00;0.93;;;;;;;;;;5284745;28;20017;-72
2022/08/04 10:17:42;;;;;;;14.45;1.23;;;;;;;;;;5283727;28;20506;-71
2022/08/04 10:20:16;;;;;;;17.33;0.90;;;;;;;;;;5284462;28;20468;-70
2022/08/04 10:23:10;;;;;;;7.85;0.98;;;;;;;;;;5284801;28;20426;-70
2022/08/04 10:26:01;;;;;;;8.63;0.77;;;;;;;;;;5283778;28;20455;-73
2022/08/04 10:28:36;;;;;;;13.02;1.52;;;;;;;;;;5284466;28;20024;-75
2022/08/04 10:31:09;;;;;;;13.50;0.95;;;;;;;;;;5284031;28;20012;-74
2022/08/04 10:33:52;;;;;;;15.50;1.48;;;;;;;;;;5284589;28;20065;-74
2022/08/04 10:36:26;;;;;;;10.82;1.00;;;;;;;;;;5284129;28;20028;-73
2022/08/04 10:39:04;;;;;;;10.25;1.20;;;;;;;;;;5290360;28;20027;-72
2022/08/04 10:41:48;;;;;;;11.15;1.70;;;;;;;;;;5305446;28;20561;-71
2022/08/04 10:44:36;;;;;;;10.18;1.63;;;;;;;;;;5304771;28;20103;-71
2022/08/04 10:47:12;;;;;;;8.70;1.80;;;;;;;;;;5305007;28;20055;-72
2022/08/04 10:49:45;;;;;;;9.73;2.03;;;;;;;;;;5305254;28;20043;-71
2022/08/04 10:52:19;;;;;;;10.43;2.33;;;;;;;;;;5304599;28;20016;-72
2022/08/04 10:54:50;;;;;;;7.00;1.38;;;;;;;;;;5305625;28;20020;-72
2022/08/04 10:57:35;;;;;;;10.23;1.27;;;;;;;;;;5304663;28;20375;-72
2022/08/04 11:00:09;;;;;;;8.95;1.75;;;;;;;;;;5304355;28;20027;-72
2022/08/04 11:02:40;;;;;;;8.13;1.08;;;;;;;;;;5305223;28;20020;-73
2022/08/04 11:05:14;;;;;;;9.20;1.95;;;;;;;;;;5304675;28;20119;-73
2022/08/04 11:07:48;;;;;;;8.60;1.52;;;;;;;;;;5304048;28;20016;-72
2022/08/04 11:10:21;;;;;;;13.02;2.55;;;;;;;;;;5304455;28;20043;-73
2022/08/04 11:12:55;;;;;;;11.38;1.92;;;;;;;;;;5305082;28;20016;-72
2022/08/04 11:15:33;;;;;;;8.05;1.98;;;;;;;;;;5304473;28;20020;-73
2022/08/04 11:18:07;;;;;;;8.77;2.40;;;;;;;;;;5304277;28;20107;-72
2022/08/04 11:20:42;;;;;;;6.55;1.83;;;;;;;;;;5303758;28;20942;-73
2022/08/04 11:23:15;;;;;;;7.93;2.78;;;;;;;;;;5304784;28;20020;-73
2022/08/04 11:25:46;;;;;;;6.68;2.20;;;;;;;;;;5304618;28;20052;-73
2022/08/04 11:28:36;;;;;;;7.25;2.00;;;;;;;;;;5303753;28;20050;-73
2022/08/04 11:31:11;;;;;;;8.35;2.22;;;;;;;;;;5304665;28;20131;-73
2022/08/04 11:34:01;;;;;;;12.35;1.98;;;;;;;;;;5304632;28;20364;-74
2022/08/04 11:36:49;;;;;;;10.10;1.70;;;;;;;;;;5304324;28;20024;-74
2022/08/04 11:39:31;;;;;;;8.85;2.22;;;;;;;;;;5303809;28;20020;-73
2022/08/04 11:42:13;;;;;;;3.60;1.77;;;;;;;;;;5303565;28;20016;-72
2022/08/04 11:44:49;;;;;;;8.52;1.35;;;;;;;;;;5304253;28;20016;-72
2022/08/04 11:47:23;;;;;;;5.78;0.98;;;;;;;;;;5303737;28;20016;-72
2022/08/04 11:50:01;;;;;;;6.72;1.00;;;;;;;;;;5303699;28;20111;-72
2022/08/04 11:52:33;;;;;;;6.82;0.90;;;;;;;;;;5303882;28;20020;-72
2022/08/04 11:55:07;;;;;;;6.80;0.95;;;;;;;;;;5303366;28;20081;-72
2022/08/04 11:57:38;;;;;;;6.35;1.30;;;;;;;;;;5286917;28;20375;-72
2022/08/04 12:00:13;;;;;;;8.20;1.15;;;;;;;;;;5300513;28;20038;-73
2022/08/04 12:02:50;;;;;;;5.25;1.00;;;;;;;;;;5280798;28;20070;-72
2022/08/04 12:05:25;;;;;;;5.45;1.70;;;;;;;;;;5289558;28;20024;-73
2022/08/04 12:07:57;;;;;;;3.38;0.75;;;;;;;;;;5281601;28;20025;-72
2022/08/04 12:10:44;;;;;;;5.65;1.10;;;;;;;;;;5288959;28;20105;-73
2022/08/04 12:13:33;;;;;;;4.38;1.50;;;;;;;;;;5302581;28;20028;-73
2022/08/04 12:16:14;;;;;;;6.55;1.20;;;;;;;;;;5301803;28;20636;-72
2022/08/04 12:18:51;;;;;;;2.30;0.70;;;;;;;;;;5302124;28;20020;-72
2022/08/04 12:21:28;;;;;;;6.28;1.42;;;;;;;;;;5299590;28;20130;-72
2022/08/04 12:24:02;;;;;;;5.90;0.98;;;;;;;;;;5291809;28;20024;-71
2022/08/04 12:26:36;;;;;;;5.40;0.90;;;;;;;;;;5287540;28;20020;-72
2022/08/04 12:29:10;;;;;;;4.63;0.60;;;;;;;;;;5287960;28;20036;-72
2022/08/04 12:31:44;;;;;;;5.18;0.80;;;;;;;;;;5288029;28;20544;-72
2022/08/04 12:34:28;;;;;;;4.38;1.00;;;;;;;;;;5287232;28;20072;-73
2022/08/04 12:37:01;;;;;;;3.92;0.60;;;;;;;;;;5281396;28;20475;-72
2022/08/04 12:39:35;;;;;;;6.38;0.93;;;;;;;;;;5280500;28;20027;-71
2022/08/04 12:42:06;;;;;;;3.88;0.50;;;;;;;;;;5281378;28;20020;-72
2022/08/04 12:44:39;;;;;;;3.57;0.53;;;;;;;;;;5281128;28;20342;-72
2022/08/04 12:47:11;;;;;;;5.88;1.08;;;;;;;;;;5288005;28;20278;-71
2022/08/04 12:49:43;;;;;;;5.78;0.60;;;;;;;;;;5302292;28;20025;-72
2022/08/04 12:52:15;;;;;;;4.65;0.60;;;;;;;;;;5301529;28;20012;-72
2022/08/04 12:54:50;;;;;;;3.08;0.63;;;;;;;;;;5302728;28;20467;-72
2022/08/04 12:57:22;;;;;;;3.25;0.52;;;;;;;;;;5302111;28;20414;-71
2022/08/04 12:59:55;;;;;;;6.75;0.95;;;;;;;;;;5301857;28;20084;-71
2022/08/04 13:02:31;;;;;;;5.55;0.60;;;;;;;;;;5302143;28;20099;-72
2022/08/04 13:05:04;;;;;;;5.38;0.82;;;;;;;;;;5299634;28;20051;-72
2022/08/04 13:07:37;;;;;;;5.22;0.80;;;;;;;;;;5288490;28;20012;-72
2022/08/04 13:10:12;;;;;;;4.22;0.70;;;;;;;;;;5281315;28;20391;-71
2022/08/04 13:12:50;;;;;;;3.65;1.25;;;;;;;;;;5280437;28;20017;-72
2022/08/04 13:15:23;;;;;;;3.55;0.63;;;;;;;;;;5281256;28;20031;-70
2022/08/04 13:17:54;;;;;;;3.70;0.77;;;;;;;;;;5281403;28;20100;-70
2022/08/04 13:20:30;;;;;;;4.53;0.50;;;;;;;;;;5280285;28;20408;-70
2022/08/04 13:23:04;;;;;;;5.03;0.55;;;;;;;;;;5285222;28;20052;-71
2022/08/04 13:25:39;;;;;;;2.30;0.50;;;;;;;;;;5285819;28;20093;-70
2022/08/04 13:28:14;;;;;;;6.03;0.70;;;;;;;;;;5285185;28;20539;-71
2022/08/04 13:30:47;;;;;;;6.47;0.90;;;;;;;;;;5285730;28;20475;-72
2022/08/04 13:33:19;;;;;;;5.40;1.13;;;;;;;;;;5285350;28;20032;-72
2022/08/04 13:35:50;;;;;;;6.10;0.90;;;;;;;;;;5285201;28;20032;-71
2022/08/04 13:38:23;;;;;;;4.60;0.80;;;;;;;;;;5285259;28;20023;-71
2022/08/04 13:41:01;;;;;;;4.18;0.60;;;;;;;;;;5285299;28;20024;-72
2022/08/04 13:43:38;;;;;;;2.67;0.70;;;;;;;;;;5285507;28;20085;-71
2022/08/04 13:46:12;;;;;;;2.80;0.70;;;;;;;;;;5285464;28;20033;-71
2022/08/04 13:48:45;;;;;;;5.10;1.00;;;;;;;;;;5284653;28;20055;-70
2022/08/04 13:51:17;;;;;;;5.85;0.60;;;;;;;;;;5285533;28;20089;-71
2022/08/04 13:53:56;;;;;;;3.47;0.57;;;;;;;;;;5285123;28;20027;-70
2022/08/04 13:56:38;;;;;;;8.38;1.08;;;;;;;;;;5283789;28;20464;-71
2022/08/04 13:59:12;;;;;;;4.25;0.80;;;;;;;;;;5284683;28;20028;-71
2022/08/04 14:01:46;;;;;;;6.35;0.75;;;;;;;;;;5284364;28;20024;-71
2022/08/04 14:04:20;;;;;;;4.57;0.93;;;;;;;;;;5285151;28;20429;-71
2022/08/04 14:07:02;;;;;;;5.93;0.90;;;;;;;;;;5285083;28;20017;-71
2022/08/04 14:09:36;;;;;;;6.20;1.17;;;;;;;;;;5284363;28;20032;-70
2022/08/04 14:12:07;;;;;;;4.00;0.75;;;;;;;;;;5285078;28;20380;-71
2022/08/04 14:14:49;;;;;;;4.32;0.80;;;;;;;;;;5284982;28;20025;-71
2022/08/04 14:17:25;;;;;;;7.03;0.90;;;;;;;;;;5283646;28;20377;-71
2022/08/04 14:20:00;;;;;;;5.47;0.95;;;;;;;;;;5284959;28;20032;-70
2022/08/04 14:22:33;;;;;;;4.10;1.10;;;;;;;;;;5284469;28;20068;-70
2022/08/04 14:25:04;;;;;;;5.70;1.10;;;;;;;;;;5284087;28;20075;-70
2022/08/04 14:27:40;;;;;;;4.30;1.00;;;;;;;;;;5284626;28;20044;-70
2022/08/04 14:30:30;;;;;;;5.18;1.33;;;;;;;;;;5283708;28;20036;-70
2022/08/04 14:33:01;;;;;;;8.30;1.23;;;;;;;;;;5284027;28;20051;-70
2022/08/04 14:35:33;;;;;;;4.17;1.00;;;;;;;;;;5284511;28;20051;-70
2022/08/04 14:38:06;;;;;;;6.07;0.80;;;;;;;;;;5283794;28;20295;-70
2022/08/04 14:40:38;;;;;;;9.18;1.35;;;;;;;;;;5284604;28;20379;-70
2022/08/04 14:43:12;;;;;;;4.20;0.70;;;;;;;;;;5284653;28;20020;-71
2022/08/04 14:45:50;;;;;;;4.90;0.95;;;;;;;;;;5283453;28;20013;-71
2022/08/04 14:48:21;;;;;;;2.97;1.00;;;;;;;;;;5283790;28;20034;-71
2022/08/04 14:50:53;;;;;;;2.43;0.90;;;;;;;;;;5283566;28;20464;-71
2022/08/04 14:53:30;;;;;;;4.50;0.82;;;;;;;;;;5283934;28;20275;-71
2022/08/04 14:56:01;;;;;;;5.60;1.30;;;;;;;;;;5284263;28;20448;-71
2022/08/04 14:58:33;;;;;;;4.93;0.90;;;;;;;;;;5283070;28;20060;-71
2022/08/04 15:01:05;;;;;;;4.28;0.75;;;;;;;;;;5283700;28;20383;-72
2022/08/04 15:03:40;;;;;;;3.67;0.80;;;;;;;;;;5283776;28;20095;-71
2022/08/04 15:06:12;;;;;;;7.43;1.00;;;;;;;;;;5283193;28;20031;-71
2022/08/04 15:08:43;;;;;;;6.33;1.20;;;;;;;;;;5283629;28;20025;-71
2022/08/04 15:11:14;;;;;;;4.47;0.60;;;;;;;;;;5283769;28;20263;-72
2022/08/04 15:13:46;;;;;;;5.35;0.60;;;;;;;;;;5282768;28;20055;-71
2022/08/04 15:16:17;;;;;;;4.63;0.70;;;;;;;;;;5283738;28;20409;-71
2022/08/04 15:18:49;;;;;;;5.80;1.10;;;;;;;;;;5283427;28;20019;-72
2022/08/04 15:21:21;;;;;;;6.72;0.90;;;;;;;;;;5282281;28;20052;-71
2022/08/04 15:23:53;;;;;;;4.38;0.80;;;;;;;;;;5283723;28;20024;-71
2022/08/04 15:26:43;;;;;;;4.07;0.70;;;;;;;;;;5282391;28;20032;-71
2022/08/04 15:29:40;;;;;;;5.45;0.93;;;;;;;;;;5283437;28;20058;-71
2022/08/04 15:32:14;;;;;;;3.27;0.87;;;;;;;;;;5281076;28;20119;-71
2022/08/04 15:34:49;;;;;;;4.57;0.80;;;;;;;;;;5282494;28;20463;-71